sensor_id;sensor_type;location;lat;lon;timestamp;pressure;altitude;pressure_sealevel;temperature;humidity
35443;BME280;21561;55.654;37.592;2022-12-11T00:02:05;98473.56;;;0.03;100.00
35443;BME280;21561;55.654;37.592;2022-12-11T00:04:32;98480.41;;;0.04;100.00
35443;BME280;21561;55.654;37.592;2022-12-11T00:06:59;98482.97;;;0.04;100.00
35443;BME280;21561;55.654;37.592;2022-12-11T00:09:25;98475.31;;;0.04;100.00
35443;BME280;21561;55.654;37.592;2022-12-11T00:11:52;98473.59;;;0.05;100.00
35443;BME280;21561;55.654;37.592;2022-12-11T00:14:19;98464.25;;;0.05;100.00
35443;BME280;21561;55.654;37.592;2022-12-11T00:16:47;98464.25;;;0.05;100.00
35443;BME280;21561;55.654;37.592;2022-12-11T00:19:15;98462.56;;;0.04;100.00
35443;BME280;21561;55.654;37.592;2022-12-11T00:21:42;98472.78;;;0.06;100.00
35443;BME280;21561;55.654;37.592;2022-12-11T00:24:09;98474.44;;;0.05;100.00
35443;BME280;21561;55.654;37.592;2022-12-11T00:26:36;98462.56;;;0.04;100.00
35443;BME280;21561;55.654;37.592;2022-12-11T00:29:04;98466.84;;;0.08;100.00
35443;BME280;21561;55.654;37.592;2022-12-11T00:31:30;98462.63;;;0.10;100.00
35443;BME280;21561;55.654;37.592;2022-12-11T00:33:57;98469.50;;;0.13;100.00
35443;BME280;21561;55.654;37.592;2022-12-11T00:36:27;98466.91;;;0.11;100.00
35443;BME280;21561;55.654;37.592;2022-12-11T00:38:54;98467.75;;;0.10;100.00
35443;BME280;21561;55.654;37.592;2022-12-11T00:41:21;98460.94;;;0.09;100.00
35443;BME280;21561;55.654;37.592;2022-12-11T00:43:48;98460.94;;;0.09;100.00
35443;BME280;21561;55.654;37.592;2022-12-11T00:46:14;98461.75;;;0.08;100.00
35443;BME280;21561;55.654;37.592;2022-12-11T00:48:41;98465.16;;;0.07;100.00
35443;BME280;21561;55.654;37.592;2022-12-11T00:51:09;98473.66;;;0.08;100.00
35443;BME280;21561;55.654;37.592;2022-12-11T00:53:37;98472.81;;;0.07;100.00
35443;BME280;21561;55.654;37.592;2022-12-11T00:56:19;98476.31;;;0.15;100.00
35443;BME280;21561;55.654;37.592;2022-12-11T00:58:46;98475.38;;;0.07;100.00
35443;BME280;21561;55.654;37.592;2022-12-11T01:01:20;98483.91;;;0.12;100.00
35443;BME280;21561;55.654;37.592;2022-12-11T01:03:47;98488.13;;;0.07;100.00
35443;BME280;21561;55.654;37.592;2022-12-11T01:06:16;98489.81;;;0.08;100.00
35443;BME280;21561;55.654;37.592;2022-12-11T01:08:43;98494.03;;;0.06;100.00
35443;BME280;21561;55.654;37.592;2022-12-11T01:11:13;98500.88;;;0.07;100.00
35443;BME280;21561;55.654;37.592;2022-12-11T01:13:40;98488.94;;;0.06;100.00
35443;BME280;21561;55.654;37.592;2022-12-11T01:16:13;98484.78;;;0.11;100.00
35443;BME280;21561;55.654;37.592;2022-12-11T01:18:41;98487.25;;;0.08;100.00
35443;BME280;21561;55.654;37.592;2022-12-11T01:21:09;98478.78;;;0.09;100.00
35443;BME280;21561;55.654;37.592;2022-12-11T01:23:37;98477.91;;;0.07;100.00
35443;BME280;21561;55.654;37.592;2022-12-11T01:26:10;98476.25;;;0.09;100.00
35443;BME280;21561;55.654;37.592;2022-12-11T01:28:38;98472.75;;;0.04;100.00
35443;BME280;21561;55.654;37.592;2022-12-11T01:31:09;98488.97;;;0.08;100.00
35443;BME280;21561;55.654;37.592;2022-12-11T01:33:36;98481.22;;;0.03;100.00
35443;BME280;21561;55.654;37.592;2022-12-11T01:36:17;98474.50;;;0.08;100.00
35443;BME280;21561;55.654;37.592;2022-12-11T01:38:45;98480.41;;;0.04;100.00
35443;BME280;21561;55.654;37.592;2022-12-11T01:41:13;98483.81;;;0.05;100.00
35443;BME280;21561;55.654;37.592;2022-12-11T01:44:01;98486.53;;;0.15;100.00
35443;BME280;21561;55.654;37.592;2022-12-11T01:46:32;98478.75;;;0.08;100.00
35443;BME280;21561;55.654;37.592;2022-12-11T01:49:02;98486.41;;;0.08;100.00
35443;BME280;21561;55.654;37.592;2022-12-11T01:51:32;98486.38;;;0.06;100.00
35443;BME280;21561;55.654;37.592;2022-12-11T01:54:05;98478.72;;;0.06;100.00
35443;BME280;21561;55.654;37.592;2022-12-11T01:56:34;98482.09;;;0.05;100.00
35443;BME280;21561;55.654;37.592;2022-12-11T01:59:04;98479.63;;;0.08;100.00
35443;BME280;21561;55.654;37.592;2022-12-11T02:01:39;98478.81;;;0.12;100.00
35443;BME280;21561;55.654;37.592;2022-12-11T02:04:08;98489.81;;;0.08;100.00
35443;BME280;21561;55.654;37.592;2022-12-11T02:06:45;98495.84;;;0.13;100.00
35443;BME280;21561;55.654;37.592;2022-12-11T02:09:18;98500.06;;;0.11;100.00
35443;BME280;21561;55.654;37.592;2022-12-11T02:14:47;98497.59;;;0.14;100.00
35443;BME280;21561;55.654;37.592;2022-12-11T02:17:26;98490.66;;;0.09;100.00
35443;BME280;21561;55.654;37.592;2022-12-11T02:20:17;98500.13;;;0.14;100.00
35443;BME280;21561;55.654;37.592;2022-12-11T02:23:03;98498.34;;;0.10;100.00
35443;BME280;21561;55.654;37.592;2022-12-11T02:25:40;98525.47;;;0.05;100.00
35443;BME280;21561;55.654;37.592;2022-12-11T02:28:19;98520.34;;;0.02;100.00
35443;BME280;21561;55.654;37.592;2022-12-11T02:30:51;98522.09;;;0.06;100.00
35443;BME280;21561;55.654;37.592;2022-12-11T02:33:26;98531.41;;;0.04;100.00
35443;BME280;21561;55.654;37.592;2022-12-11T02:35:56;98531.25;;;-0.04;100.00
35443;BME280;21561;55.654;37.592;2022-12-11T02:38:30;98535.56;;;-0.01;100.00
35443;BME280;21561;55.654;37.592;2022-12-11T02:40:59;98526.88;;;-0.12;100.00
35443;BME280;21561;55.654;37.592;2022-12-11T02:43:29;98527.63;;;-0.18;100.00
35443;BME280;21561;55.654;37.592;2022-12-11T02:45:58;98524.16;;;-0.23;100.00
35443;BME280;21561;55.654;37.592;2022-12-11T02:48:26;98533.44;;;-0.27;100.00
35443;BME280;21561;55.654;37.592;2022-12-11T02:50:56;98543.66;;;-0.24;100.00
35443;BME280;21561;55.654;37.592;2022-12-11T02:53:28;98530.03;;;-0.26;100.00
35443;BME280;21561;55.654;37.592;2022-12-11T02:56:05;98525.81;;;-0.24;100.00
35443;BME280;21561;55.654;37.592;2022-12-11T02:58:35;98533.38;;;-0.30;100.00
35443;BME280;21561;55.654;37.592;2022-12-11T03:01:07;98538.41;;;-0.33;100.00
35443;BME280;21561;55.654;37.592;2022-12-11T03:03:34;98545.16;;;-0.35;100.00
35443;BME280;21561;55.654;37.592;2022-12-11T03:06:00;98561.28;;;-0.36;100.00
35443;BME280;21561;55.654;37.592;2022-12-11T03:08:28;98559.53;;;-0.39;100.00
35443;BME280;21561;55.654;37.592;2022-12-11T03:10:55;98556.91;;;-0.45;100.00
35443;BME280;21561;55.654;37.592;2022-12-11T03:13:22;98555.13;;;-0.47;100.00
35443;BME280;21561;55.654;37.592;2022-12-11T03:22:09;98561.94;;;-0.46;100.00
35443;BME280;21561;55.654;37.592;2022-12-11T03:24:43;98570.41;;;-0.47;100.00
35443;BME280;21561;55.654;37.592;2022-12-11T03:27:35;98574.63;;;-0.49;100.00
35443;BME280;21561;55.654;37.592;2022-12-11T03:30:07;98578.84;;;-0.51;100.00
35443;BME280;21561;55.654;37.592;2022-12-11T03:32:46;98576.31;;;-0.50;100.00
35443;BME280;21561;55.654;37.592;2022-12-11T03:35:43;98572.16;;;-0.46;100.00
35443;BME280;21561;55.654;37.592;2022-12-11T03:38:17;98574.56;;;-0.52;100.00
35443;BME280;21561;55.654;37.592;2022-12-11T03:40:50;98583.94;;;-0.51;100.00
35443;BME280;21561;55.654;37.592;2022-12-11T03:43:21;98592.41;;;-0.52;100.00
35443;BME280;21561;55.654;37.592;2022-12-11T03:45:49;98594.06;;;-0.54;100.00
35443;BME280;21561;55.654;37.592;2022-12-11T03:48:18;98595.72;;;-0.56;100.00
35443;BME280;21561;55.654;37.592;2022-12-11T03:50:47;98599.09;;;-0.58;100.00
35443;BME280;21561;55.654;37.592;2022-12-11T03:53:15;98594.84;;;-0.59;100.00
35443;BME280;21561;55.654;37.592;2022-12-11T03:55:45;98595.66;;;-0.60;100.00
35443;BME280;21561;55.654;37.592;2022-12-11T03:58:12;98605.81;;;-0.63;100.00
35443;BME280;21561;55.654;37.592;2022-12-11T04:00:42;98602.47;;;-0.59;100.00
35443;BME280;21561;55.654;37.592;2022-12-11T04:03:09;98611.69;;;-0.65;100.00
35443;BME280;21561;55.654;37.592;2022-12-11T04:05:44;98610.91;;;-0.63;100.00
35443;BME280;21561;55.654;37.592;2022-12-11T04:08:12;98620.13;;;-0.68;100.00
35443;BME280;21561;55.654;37.592;2022-12-11T04:10:40;98625.91;;;-0.75;100.00
35443;BME280;21561;55.654;37.592;2022-12-11T04:13:07;98634.28;;;-0.79;100.00
35443;BME280;21561;55.654;37.592;2022-12-11T04:15:35;98624.09;;;-0.79;100.00
35443;BME280;21561;55.654;37.592;2022-12-11T04:18:03;98617.31;;;-0.80;100.00
35443;BME280;21561;55.654;37.592;2022-12-11T04:20:48;98619.91;;;-0.79;100.00
35443;BME280;21561;55.654;37.592;2022-12-11T04:23:33;98623.34;;;-0.77;100.00
35443;BME280;21561;55.654;37.592;2022-12-11T04:26:19;98626.72;;;-0.76;100.00
35443;BME280;21561;55.654;37.592;2022-12-11T04:28:47;98633.53;;;-0.77;100.00
35443;BME280;21561;55.654;37.592;2022-12-11T04:31:16;98625.84;;;-0.78;100.00
35443;BME280;21561;55.654;37.592;2022-12-11T04:33:43;98630.84;;;-0.81;100.00
35443;BME280;21561;55.654;37.592;2022-12-11T04:36:11;98629.16;;;-0.82;100.00
35443;BME280;21561;55.654;37.592;2022-12-11T04:38:38;98631.66;;;-0.84;100.00
35443;BME280;21561;55.654;37.592;2022-12-11T04:41:08;98640.09;;;-0.86;100.00
35443;BME280;21561;55.654;37.592;2022-12-11T04:43:36;98641.78;;;-0.87;100.00
35443;BME280;21561;55.654;37.592;2022-12-11T04:48:32;98637.28;;;-0.99;100.00
35443;BME280;21561;55.654;37.592;2022-12-11T04:50:58;98635.56;;;-1.00;100.00
35443;BME280;21561;55.654;37.592;2022-12-11T04:53:26;98640.66;;;-1.00;100.00
35443;BME280;21561;55.654;37.592;2022-12-11T04:55:53;98642.38;;;-0.99;100.00
35443;BME280;21561;55.654;37.592;2022-12-11T04:58:20;98638.91;;;-1.01;100.00
35443;BME280;21561;55.654;37.592;2022-12-11T05:00:47;98641.44;;;-1.02;100.00
35443;BME280;21561;55.654;37.592;2022-12-11T05:03:14;98634.66;;;-1.02;100.00
35443;BME280;21561;55.654;37.592;2022-12-11T05:05:47;98617.84;;;-0.93;100.00
35443;BME280;21561;55.654;37.592;2022-12-11T05:08:13;98625.50;;;-0.93;100.00
35443;BME280;21561;55.654;37.592;2022-12-11T05:10:40;98627.31;;;-0.89;100.00
35443;BME280;21561;55.654;37.592;2022-12-11T05:13:15;98631.59;;;-0.87;100.00
35443;BME280;21561;55.654;37.592;2022-12-11T05:15:41;98641.69;;;-0.90;100.00
35443;BME280;21561;55.654;37.592;2022-12-11T05:18:08;98650.97;;;-0.93;100.00
35443;BME280;21561;55.654;37.592;2022-12-11T05:20:35;98655.16;;;-0.96;100.00
35443;BME280;21561;55.654;37.592;2022-12-11T05:23:02;98657.53;;;-1.03;100.00
35443;BME280;21561;55.654;37.592;2022-12-11T05:25:29;98656.56;;;-1.08;100.00
35443;BME280;21561;55.654;37.592;2022-12-11T05:27:56;98656.56;;;-1.08;100.00
35443;BME280;21561;55.654;37.592;2022-12-11T05:30:22;98663.44;;;-1.06;100.00
35443;BME280;21561;55.654;37.592;2022-12-11T05:32:49;98666.00;;;-1.04;100.00
35443;BME280;21561;55.654;37.592;2022-12-11T05:35:16;98675.28;;;-1.06;100.00
35443;BME280;21561;55.654;37.592;2022-12-11T05:37:43;98685.50;;;-1.05;100.00
35443;BME280;21561;55.654;37.592;2022-12-11T05:40:31;98690.66;;;-1.03;100.00
35443;BME280;21561;55.654;37.592;2022-12-11T05:42:58;98697.31;;;-1.08;100.00
35443;BME280;21561;55.654;37.592;2022-12-11T05:45:25;98705.78;;;-1.09;100.00
35443;BME280;21561;55.654;37.592;2022-12-11T05:47:52;98708.34;;;-1.08;100.00
35443;BME280;21561;55.654;37.592;2022-12-11T05:50:18;98716.78;;;-1.10;100.00
35443;BME280;21561;55.654;37.592;2022-12-11T05:52:45;98723.63;;;-1.08;100.00
35443;BME280;21561;55.654;37.592;2022-12-11T05:55:12;98728.78;;;-1.05;100.00
35443;BME280;21561;55.654;37.592;2022-12-11T05:57:39;98731.44;;;-1.02;100.00
35443;BME280;21561;55.654;37.592;2022-12-11T06:00:07;98734.00;;;-1.00;100.00
35443;BME280;21561;55.654;37.592;2022-12-11T06:02:34;98736.56;;;-1.00;100.00
35443;BME280;21561;55.654;37.592;2022-12-11T06:05:02;98739.91;;;-1.01;100.00
35443;BME280;21561;55.654;37.592;2022-12-11T06:07:29;98756.84;;;-1.03;100.00
35443;BME280;21561;55.654;37.592;2022-12-11T06:09:55;98754.19;;;-1.08;100.00
35443;BME280;21561;55.654;37.592;2022-12-11T06:12:22;98760.97;;;-1.08;100.00
35443;BME280;21561;55.654;37.592;2022-12-11T06:14:49;98763.41;;;-1.11;100.00
35443;BME280;21561;55.654;37.592;2022-12-11T06:17:16;98766.69;;;-1.17;100.00
35443;BME280;21561;55.654;37.592;2022-12-11T06:19:42;98773.41;;;-1.19;100.00
35443;BME280;21561;55.654;37.592;2022-12-11T06:22:09;98773.41;;;-1.19;100.00
35443;BME280;21561;55.654;37.592;2022-12-11T06:24:36;98780.25;;;-1.18;100.00
35443;BME280;21561;55.654;37.592;2022-12-11T06:27:03;98781.94;;;-1.17;100.00
35443;BME280;21561;55.654;37.592;2022-12-11T06:29:29;98774.34;;;-1.16;100.00
35443;BME280;21561;55.654;37.592;2022-12-11T06:31:56;98786.19;;;-1.18;100.00
35443;BME280;21561;55.654;37.592;2022-12-11T06:34:23;98784.59;;;-1.14;100.00
35443;BME280;21561;55.654;37.592;2022-12-11T06:36:50;98784.69;;;-1.11;100.00
35443;BME280;21561;55.654;37.592;2022-12-11T06:39:17;98778.03;;;-1.06;100.00
35443;BME280;21561;55.654;37.592;2022-12-11T06:41:43;98777.22;;;-1.03;100.00
35443;BME280;21561;55.654;37.592;2022-12-11T06:44:10;98775.47;;;-1.04;100.00
35443;BME280;21561;55.654;37.592;2022-12-11T06:46:37;98776.28;;;-1.07;100.00
35443;BME280;21561;55.654;37.592;2022-12-11T06:49:03;98774.53;;;-1.08;100.00
35443;BME280;21561;55.654;37.592;2022-12-11T06:51:30;98775.34;;;-1.10;100.00
35443;BME280;21561;55.654;37.592;2022-12-11T06:53:58;98780.38;;;-1.12;100.00
35443;BME280;21561;55.654;37.592;2022-12-11T06:56:25;98794.78;;;-1.14;100.00
35443;BME280;21561;55.654;37.592;2022-12-11T06:58:52;98779.50;;;-1.14;100.00
35443;BME280;21561;55.654;37.592;2022-12-11T07:01:25;98784.72;;;-1.08;100.00
35443;BME280;21561;55.654;37.592;2022-12-11T07:03:55;98784.72;;;-1.08;100.00
35443;BME280;21561;55.654;37.592;2022-12-11T07:06:24;98784.00;;;-1.04;100.00
35443;BME280;21561;55.654;37.592;2022-12-11T07:08:55;98788.34;;;-1.00;100.00
35443;BME280;21561;55.654;37.592;2022-12-11T07:11:23;98808.84;;;-0.93;100.00
35443;BME280;21561;55.654;37.592;2022-12-11T07:13:50;98810.69;;;-0.89;100.00
35443;BME280;21561;55.654;37.592;2022-12-11T07:16:18;98805.63;;;-0.86;100.00
35443;BME280;21561;55.654;37.592;2022-12-11T07:18:49;98811.72;;;-0.81;100.00
35443;BME280;21561;55.654;37.592;2022-12-11T07:21:17;98810.88;;;-0.82;100.00
35443;BME280;21561;55.654;37.592;2022-12-11T07:23:44;98804.97;;;-0.79;100.00
35443;BME280;21561;55.654;37.592;2022-12-11T07:26:17;98794.09;;;-0.72;100.00
35443;BME280;21561;55.654;37.592;2022-12-11T07:28:45;98800.84;;;-0.74;100.00
35443;BME280;21561;55.654;37.592;2022-12-11T07:31:15;98809.47;;;-0.69;100.00
35443;BME280;21561;55.654;37.592;2022-12-11T07:33:42;98806.13;;;-0.68;100.00
35443;BME280;21561;55.654;37.592;2022-12-11T07:36:11;98824.00;;;-0.66;100.00
35443;BME280;21561;55.654;37.592;2022-12-11T07:38:38;98833.31;;;-0.67;100.00
35443;BME280;21561;55.654;37.592;2022-12-11T07:41:11;98824.00;;;-0.65;100.00
35443;BME280;21561;55.654;37.592;2022-12-11T07:43:38;98809.34;;;-0.75;100.00
35443;BME280;21561;55.654;37.592;2022-12-11T07:46:13;98813.53;;;-0.77;100.00
35443;BME280;21561;55.654;37.592;2022-12-11T07:48:42;98819.34;;;-0.81;100.00
35443;BME280;21561;55.654;37.592;2022-12-11T07:51:12;98793.84;;;-0.83;100.00
35443;BME280;21561;55.654;37.592;2022-12-11T07:53:45;98807.59;;;-0.76;100.00
35443;BME280;21561;55.654;37.592;2022-12-11T07:56:12;98814.66;;;-0.66;100.00
35443;BME280;21561;55.654;37.592;2022-12-11T07:58:39;98836.53;;;-0.74;100.00
35443;BME280;21561;55.654;37.592;2022-12-11T08:01:32;98840.22;;;-0.63;100.00
35443;BME280;21561;55.654;37.592;2022-12-11T08:04:03;98844.25;;;-0.71;100.00
35443;BME280;21561;55.654;37.592;2022-12-11T08:06:34;98848.69;;;-0.64;100.00
35443;BME280;21561;55.654;37.592;2022-12-11T08:09:04;98833.47;;;-0.61;100.00
35443;BME280;21561;55.654;37.592;2022-12-11T08:11:31;98833.38;;;-0.64;100.00
35443;BME280;21561;55.654;37.592;2022-12-11T08:13:58;98837.59;;;-0.66;100.00
35443;BME280;21561;55.654;37.592;2022-12-11T08:16:25;98843.34;;;-0.73;100.00
35443;BME280;21561;55.654;37.592;2022-12-11T08:18:52;98846.72;;;-0.74;100.00
35443;BME280;21561;55.654;37.592;2022-12-11T08:21:21;98845.16;;;-0.69;100.00
35443;BME280;21561;55.654;37.592;2022-12-11T08:23:49;98841.78;;;-0.68;100.00
35443;BME280;21561;55.654;37.592;2022-12-11T08:26:20;98850.41;;;-0.63;100.00
35443;BME280;21561;55.654;37.592;2022-12-11T08:28:47;98848.75;;;-0.61;100.00
35443;BME280;21561;55.654;37.592;2022-12-11T08:31:14;98857.31;;;-0.59;100.00
35443;BME280;21561;55.654;37.592;2022-12-11T08:33:42;98860.75;;;-0.56;100.00
35443;BME280;21561;55.654;37.592;2022-12-11T08:36:12;98860.81;;;-0.53;100.00
35443;BME280;21561;55.654;37.592;2022-12-11T08:38:41;98869.38;;;-0.51;100.00
35443;BME280;21561;55.654;37.592;2022-12-11T08:43:35;98880.47;;;-0.49;100.00
35443;BME280;21561;55.654;37.592;2022-12-11T08:46:02;98882.19;;;-0.48;100.00
35443;BME280;21561;55.654;37.592;2022-12-11T08:48:29;98883.91;;;-0.47;100.00
35443;BME280;21561;55.654;37.592;2022-12-11T08:51:00;98878.13;;;-0.40;100.00
35443;BME280;21561;55.654;37.592;2022-12-11T08:53:29;98883.13;;;-0.43;100.00
35443;BME280;21561;55.654;37.592;2022-12-11T08:56:06;98885.00;;;-0.36;100.00
35443;BME280;21561;55.654;37.592;2022-12-11T08:58:34;98881.56;;;-0.38;100.00
35443;BME280;21561;55.654;37.592;2022-12-11T09:01:16;98887.88;;;-0.24;100.00
35443;BME280;21561;55.654;37.592;2022-12-11T09:03:43;98885.94;;;-0.32;100.00
35443;BME280;21561;55.654;37.592;2022-12-11T09:06:13;98887.66;;;-0.33;100.00
35443;BME280;21561;55.654;37.592;2022-12-11T09:08:41;98890.13;;;-0.36;100.00
35443;BME280;21561;55.654;37.592;2022-12-11T09:11:20;98878.97;;;-0.40;100.00
35443;BME280;21561;55.654;37.592;2022-12-11T09:13:48;98892.31;;;-0.51;100.00
35443;BME280;21561;55.654;37.592;2022-12-11T09:16:17;98892.19;;;-0.56;100.00
35443;BME280;21561;55.654;37.592;2022-12-11T09:18:46;98890.47;;;-0.57;100.00
35443;BME280;21561;55.654;37.592;2022-12-11T09:21:15;98892.19;;;-0.56;100.00
35443;BME280;21561;55.654;37.592;2022-12-11T09:23:43;98891.28;;;-0.58;100.00
35443;BME280;21561;55.654;37.592;2022-12-11T09:26:11;98899.06;;;-0.53;100.00
35443;BME280;21561;55.654;37.592;2022-12-11T09:28:39;98883.81;;;-0.52;100.00
35443;BME280;21561;55.654;37.592;2022-12-11T09:31:33;98883.31;;;-0.37;100.00
35443;BME280;21561;55.654;37.592;2022-12-11T09:34:05;98900.25;;;-0.39;100.00
35443;BME280;21561;55.654;37.592;2022-12-11T09:36:33;98924.00;;;-0.40;100.00
35443;BME280;21561;55.654;37.592;2022-12-11T09:39:04;98928.44;;;-0.33;100.00
35443;BME280;21561;55.654;37.592;2022-12-11T09:41:54;98927.00;;;-0.22;100.00
35443;BME280;21561;55.654;37.592;2022-12-11T09:44:29;98934.44;;;-0.31;100.00
35443;BME280;21561;55.654;37.592;2022-12-11T09:46:57;98937.75;;;-0.35;100.00
35443;BME280;21561;55.654;37.592;2022-12-11T09:49:40;98918.31;;;-0.30;100.00
35443;BME280;21561;55.654;37.592;2022-12-11T09:52:16;98936.97;;;-0.31;100.00
35443;BME280;21561;55.654;37.592;2022-12-11T09:54:56;98948.06;;;-0.29;100.00
35443;BME280;21561;55.654;37.592;2022-12-11T10:00:23;98947.97;;;-0.33;100.00
35443;BME280;21561;55.654;37.592;2022-12-11T10:03:19;98958.13;;;-0.35;100.00
35443;BME280;21561;55.654;37.592;2022-12-11T10:05:49;98935.00;;;-0.43;100.00
35443;BME280;21561;55.654;37.592;2022-12-11T10:14:05;98939.97;;;-0.47;100.00
35443;BME280;21561;55.654;37.592;2022-12-11T10:16:46;98929.69;;;-0.50;100.00
35443;BME280;21561;55.654;37.592;2022-12-11T10:19:20;98927.91;;;-0.54;100.00
35443;BME280;21561;55.654;37.592;2022-12-11T10:21:49;98932.81;;;-0.62;100.00
35443;BME280;21561;55.654;37.592;2022-12-11T10:24:30;98914.25;;;-0.56;100.00
35443;BME280;21561;55.654;37.592;2022-12-11T10:27:22;98918.53;;;-0.55;100.00
35443;BME280;21561;55.654;37.592;2022-12-11T10:30:11;98928.78;;;-0.52;100.00
35443;BME280;21561;55.654;37.592;2022-12-11T10:38:30;98947.63;;;-0.47;100.00
35443;BME280;21561;55.654;37.592;2022-12-11T10:41:04;98947.47;;;-0.53;100.00
35443;BME280;21561;55.654;37.592;2022-12-11T10:43:51;98944.31;;;-0.43;100.00
35443;BME280;21561;55.654;37.592;2022-12-11T10:46:22;98933.94;;;-0.51;100.00
35443;BME280;21561;55.654;37.592;2022-12-11T10:48:59;98927.41;;;-0.41;100.00
35443;BME280;21561;55.654;37.592;2022-12-11T10:54:06;98927.47;;;-0.38;100.00
35443;BME280;21561;55.654;37.592;2022-12-11T10:56:36;98929.03;;;-0.43;100.00
35443;BME280;21561;55.654;37.592;2022-12-11T10:59:03;98920.44;;;-0.48;100.00
35443;BME280;21561;55.654;37.592;2022-12-11T11:01:31;98914.50;;;-0.47;100.00
35443;BME280;21561;55.654;37.592;2022-12-11T11:04:05;98915.47;;;-0.42;100.00
35443;BME280;21561;55.654;37.592;2022-12-11T11:06:33;98917.03;;;-0.47;100.00
35443;BME280;21561;55.654;37.592;2022-12-11T11:09:00;98911.09;;;-0.48;100.00
35443;BME280;21561;55.654;37.592;2022-12-11T11:11:30;98907.78;;;-0.44;100.00
35443;BME280;21561;55.654;37.592;2022-12-11T11:16:37;98897.59;;;-0.44;100.00
35443;BME280;21561;55.654;37.592;2022-12-11T11:19:04;98905.91;;;-0.51;100.00
35443;BME280;21561;55.654;37.592;2022-12-11T11:21:33;98905.13;;;-0.48;100.00
35443;BME280;21561;55.654;37.592;2022-12-11T11:24:02;98906.75;;;-0.50;100.00
35443;BME280;21561;55.654;37.592;2022-12-11T11:26:31;98899.09;;;-0.50;100.00
35443;BME280;21561;55.654;37.592;2022-12-11T11:29:30;98890.69;;;-0.48;100.00
35443;BME280;21561;55.654;37.592;2022-12-11T11:32:30;98885.50;;;-0.51;100.00
35443;BME280;21561;55.654;37.592;2022-12-11T11:34:48;98897.22;;;-0.58;100.00
35443;BME280;21561;55.654;37.592;2022-12-11T11:37:32;98893.19;;;-0.49;100.00
35443;BME280;21561;55.654;37.592;2022-12-11T11:40:14;98888.03;;;-0.52;100.00
35443;BME280;21561;55.654;37.592;2022-12-11T11:45:34;98896.28;;;-0.61;100.00
35443;BME280;21561;55.654;37.592;2022-12-11T11:48:23;98906.53;;;-0.60;100.00
35443;BME280;21561;55.654;37.592;2022-12-11T11:50:54;98913.13;;;-0.68;100.00
35443;BME280;21561;55.654;37.592;2022-12-11T11:53:31;98907.19;;;-0.67;100.00
35443;BME280;21561;55.654;37.592;2022-12-11T11:56:29;98905.53;;;-0.65;100.00
35443;BME280;21561;55.654;37.592;2022-12-11T11:59:02;98911.31;;;-0.72;100.00
35443;BME280;21561;55.654;37.592;2022-12-11T12:01:31;98911.25;;;-0.75;100.00
35443;BME280;21561;55.654;37.592;2022-12-11T12:04:00;98911.31;;;-0.72;100.00
35443;BME280;21561;55.654;37.592;2022-12-11T12:06:50;98912.34;;;-0.65;100.00
35443;BME280;21561;55.654;37.592;2022-12-11T12:12:29;98920.81;;;-0.65;100.00
35443;BME280;21561;55.654;37.592;2022-12-11T12:25:57;98933.41;;;-0.71;100.00
35443;BME280;21561;55.654;37.592;2022-12-11T12:28:51;98932.66;;;-0.67;100.00
35443;BME280;21561;55.654;37.592;2022-12-11T12:34:02;98931.78;;;-0.69;100.00
35443;BME280;21561;55.654;37.592;2022-12-11T12:39:33;98928.25;;;-0.74;100.00
35443;BME280;21561;55.654;37.592;2022-12-11T12:45:03;98924.97;;;-0.70;100.00
35443;BME280;21561;55.654;37.592;2022-12-11T12:47:35;98923.00;;;-0.80;100.00
35443;BME280;21561;55.654;37.592;2022-12-11T12:50:05;98920.44;;;-0.80;100.00
35443;BME280;21561;55.654;37.592;2022-12-11T12:52:38;98926.44;;;-0.78;100.00
35443;BME280;21561;55.654;37.592;2022-12-11T12:57:54;98918.94;;;-0.73;100.00
35443;BME280;21561;55.654;37.592;2022-12-11T13:00:41;98916.41;;;-0.72;100.00
35443;BME280;21561;55.654;37.592;2022-12-11T13:03:16;98911.25;;;-0.75;100.00
35443;BME280;21561;55.654;37.592;2022-12-11T13:05:57;98920.59;;;-0.74;100.00
35443;BME280;21561;55.654;37.592;2022-12-11T13:08:27;98925.66;;;-0.75;100.00
35443;BME280;21561;55.654;37.592;2022-12-11T13:11:02;98918.94;;;-0.73;100.00
35443;BME280;21561;55.654;37.592;2022-12-11T13:13:38;98917.00;;;-0.82;100.00
35443;BME280;21561;55.654;37.592;2022-12-11T13:16:26;98909.50;;;-0.76;100.00
35443;BME280;21561;55.654;37.592;2022-12-11T13:19:00;98903.38;;;-0.83;100.00
35443;BME280;21561;55.654;37.592;2022-12-11T13:21:29;98899.22;;;-0.79;100.00
35443;BME280;21561;55.654;37.592;2022-12-11T13:26:49;98889.22;;;-0.73;100.00
35443;BME280;21561;55.654;37.592;2022-12-11T13:29:35;98882.50;;;-0.69;100.00
35443;BME280;21561;55.654;37.592;2022-12-11T13:32:20;98872.19;;;-0.74;100.00
35443;BME280;21561;55.654;37.592;2022-12-11T13:34:54;98875.50;;;-0.78;100.00
35443;BME280;21561;55.654;37.592;2022-12-11T13:37:29;98874.63;;;-0.79;100.00
35443;BME280;21561;55.654;37.592;2022-12-11T13:39:59;98874.53;;;-0.82;100.00
35443;BME280;21561;55.654;37.592;2022-12-11T13:43:00;98870.47;;;-0.75;100.00
35443;BME280;21561;55.654;37.592;2022-12-11T13:47:58;98870.31;;;-0.81;100.00
35443;BME280;21561;55.654;37.592;2022-12-11T13:50:31;98862.78;;;-0.77;100.00
35443;BME280;21561;55.654;37.592;2022-12-11T13:53:00;98863.56;;;-0.79;100.00
35443;BME280;21561;55.654;37.592;2022-12-11T13:55:31;98864.50;;;-0.75;100.00
35443;BME280;21561;55.654;37.592;2022-12-11T13:57:58;98859.31;;;-0.80;100.00
35443;BME280;21561;55.654;37.592;2022-12-11T14:00:28;98846.66;;;-0.77;100.00
35443;BME280;21561;55.654;37.592;2022-12-11T14:02:59;98843.19;;;-0.79;100.00
35443;BME280;21561;55.654;37.592;2022-12-11T14:05:27;98848.22;;;-0.82;100.00
35443;BME280;21561;55.654;37.592;2022-12-11T14:07:57;98848.22;;;-0.82;100.00
35443;BME280;21561;55.654;37.592;2022-12-11T14:10:27;98839.69;;;-0.83;100.00
35443;BME280;21561;55.654;37.592;2022-12-11T14:12:59;98834.72;;;-0.78;100.00